Time;durP1;ratioP1;P1;durP2;ratioP2;P2;SDS_P1;SDS_P2;PMS_P1;PMS_P2;Temp;Humidity;BMP_temperature;BMP_pressure;BME280_temperature;BME280_humidity;BME280_pressure;Samples;Min_cycle;Max_cycle;Signal;HPM_P1;HPM_P2
2023/01/08 00:00:43;;;;;;;5.90;2.25;;;12.30;77.00;;;;;;5112597;28;20467;-72
2023/01/08 00:03:09;;;;;;;7.38;2.50;;;12.30;77.00;;;;;;5113884;28;20020;-72
2023/01/08 00:05:35;;;;;;;5.30;2.33;;;12.30;76.90;;;;;;5106428;28;20031;-73
2023/01/08 00:08:01;;;;;;;5.18;2.55;;;12.30;76.90;;;;;;5108557;28;20040;-72
2023/01/08 00:10:26;;;;;;;5.30;2.47;;;12.30;76.80;;;;;;5107891;28;20056;-72
2023/01/08 00:12:54;;;;;;;6.40;2.35;;;12.30;76.80;;;;;;5087811;28;20015;-72
2023/01/08 00:15:20;;;;;;;5.22;2.20;;;12.30;76.80;;;;;;5115158;28;20032;-72
2023/01/08 00:17:46;;;;;;;5.78;2.38;;;12.40;76.80;;;;;;5119690;28;20047;-72
2023/01/08 00:20:12;;;;;;;6.40;2.55;;;12.40;76.70;;;;;;5113508;28;20530;-72
2023/01/08 00:22:37;;;;;;;4.68;2.20;;;12.40;76.70;;;;;;5103892;28;20032;-73
2023/01/08 00:25:04;;;;;;;5.18;2.22;;;12.40;76.70;;;;;;5115086;28;20027;-72
2023/01/08 00:27:31;;;;;;;5.45;2.25;;;12.40;76.70;;;;;;5109734;28;20035;-72
2023/01/08 00:29:57;;;;;;;5.97;2.50;;;12.40;76.70;;;;;;5098954;28;20111;-72
2023/01/08 00:32:23;;;;;;;6.32;2.45;;;12.40;76.60;;;;;;5095333;28;20410;-73
2023/01/08 00:34:48;;;;;;;6.05;2.58;;;12.40;76.60;;;;;;5105236;28;20027;-72
2023/01/08 00:37:17;;;;;;;8.35;3.00;;;12.40;76.60;;;;;;5112485;28;20061;-72
2023/01/08 00:39:43;;;;;;;6.35;2.45;;;12.40;76.70;;;;;;5101803;28;20111;-72
2023/01/08 00:42:10;;;;;;;6.47;2.30;;;12.30;76.60;;;;;;5102573;28;20328;-73
2023/01/08 00:44:36;;;;;;;5.93;2.90;;;12.40;76.70;;;;;;5111081;28;20459;-73
2023/01/08 00:47:02;;;;;;;6.13;3.00;;;12.40;76.60;;;;;;5115709;28;20027;-73
2023/01/08 00:49:28;;;;;;;6.90;2.47;;;12.30;76.50;;;;;;5096292;28;20085;-73
2023/01/08 00:51:54;;;;;;;5.53;2.30;;;12.40;76.60;;;;;;5116079;28;20065;-72
2023/01/08 00:54:21;;;;;;;5.95;2.50;;;12.40;76.50;;;;;;5118212;28;20364;-72
2023/01/08 00:56:46;;;;;;;6.57;2.50;;;12.40;76.50;;;;;;5115016;28;20031;-71
2023/01/08 00:59:12;;;;;;;5.35;2.20;;;12.40;76.50;;;;;;5106740;28;20028;-72
2023/01/08 01:01:38;;;;;;;6.55;2.42;;;12.40;76.40;;;;;;5108570;28;20032;-72
2023/01/08 01:04:04;;;;;;;5.38;2.55;;;12.40;76.30;;;;;;5116470;28;20035;-72
2023/01/08 01:06:30;;;;;;;6.50;2.60;;;12.40;76.20;;;;;;5096972;28;20032;-72
2023/01/08 01:08:56;;;;;;;6.18;2.50;;;12.40;76.20;;;;;;5081574;28;20028;-72
2023/01/08 01:11:24;;;;;;;5.68;2.38;;;12.40;76.30;;;;;;5116346;28;20190;-72
2023/01/08 01:13:51;;;;;;;7.00;2.67;;;12.40;76.30;;;;;;5103818;28;20102;-72
2023/01/08 01:16:17;;;;;;;5.13;2.20;;;12.40;76.30;;;;;;5107710;28;20043;-72
2023/01/08 01:18:43;;;;;;;4.88;2.17;;;12.40;76.30;;;;;;5103220;28;20044;-72
2023/01/08 01:21:27;;;;;;;5.75;2.40;;;12.40;76.20;;;;;;5117574;28;20452;-72
2023/01/08 01:23:55;;;;;;;7.70;2.83;;;12.40;76.20;;;;;;5114755;28;20412;-72
2023/01/08 01:26:22;;;;;;;5.75;2.70;;;12.40;76.20;;;;;;5116641;28;20038;-72
2023/01/08 01:28:50;;;;;;;6.93;2.33;;;12.40;76.20;;;;;;5107725;28;20027;-72
2023/01/08 01:31:17;;;;;;;5.43;2.20;;;12.40;76.20;;;;;;5117187;28;20016;-72
2023/01/08 01:33:43;;;;;;;5.30;2.50;;;12.30;76.20;;;;;;5113062;28;20034;-72
2023/01/08 01:36:11;;;;;;;5.10;2.05;;;12.40;76.30;;;;;;5116645;28;20035;-72
2023/01/08 01:38:36;;;;;;;7.03;2.88;;;12.40;76.20;;;;;;5095624;28;20024;-70
2023/01/08 01:41:02;;;;;;;4.90;1.98;;;12.40;76.20;;;;;;5099348;28;20070;-72
2023/01/08 01:43:42;;;;;;;7.10;2.47;;;12.30;76.20;;;;;;5115425;28;20081;-72
2023/01/08 01:46:34;;;;;;;6.10;2.50;;;12.40;76.10;;;;;;5115474;28;20024;-71
2023/01/08 01:49:05;;;;;;;5.63;2.28;;;12.40;76.10;;;;;;5104632;28;20427;-71
2023/01/08 01:51:33;;;;;;;7.40;2.78;;;12.40;76.10;;;;;;5116077;28;20054;-71
2023/01/08 01:54:01;;;;;;;5.68;2.60;;;12.40;76.10;;;;;;5095633;28;20034;-72
2023/01/08 01:56:29;;;;;;;5.15;2.05;;;12.40;76.10;;;;;;5117491;28;20449;-71
2023/01/08 01:58:55;;;;;;;6.57;2.55;;;12.40;76.10;;;;;;5098390;28;20024;-71
2023/01/08 02:01:23;;;;;;;5.38;2.50;;;12.40;76.10;;;;;;5111621;28;20036;-71
2023/01/08 02:03:48;;;;;;;7.72;3.10;;;12.40;76.10;;;;;;5113676;27;20032;-72
2023/01/08 02:06:43;;;;;;;6.82;2.85;;;12.30;76.10;;;;;;5113048;28;20039;-71
2023/01/08 02:09:12;;;;;;;7.25;2.70;;;12.40;76.10;;;;;;5097344;28;20028;-72
2023/01/08 02:15:02;;;;;;;7.60;2.42;;;12.30;76.00;;;;;;5104741;28;20028;-71
2023/01/08 02:17:54;;;;;;;7.53;2.58;;;12.30;76.00;;;;;;5111550;28;20047;-72
2023/01/08 02:20:25;;;;;;;7.30;2.67;;;12.30;76.00;;;;;;5114621;28;20031;-72
2023/01/08 02:22:57;;;;;;;8.57;2.67;;;12.30;76.00;;;;;;5115723;28;20027;-72
2023/01/08 02:25:30;;;;;;;7.35;2.38;;;12.30;76.00;;;;;;5110006;28;20356;-71
2023/01/08 02:27:58;;;;;;;6.32;2.58;;;12.30;76.00;;;;;;5098764;28;20062;-72
2023/01/08 02:30:24;;;;;;;7.80;2.70;;;12.30;76.00;;;;;;5111543;28;20115;-72
2023/01/08 02:32:50;;;;;;;6.65;2.33;;;12.30;76.00;;;;;;5115903;28;20039;-72
2023/01/08 02:35:16;;;;;;;5.78;2.17;;;12.30;76.10;;;;;;5112714;28;20020;-72
2023/01/08 02:37:42;;;;;;;7.55;2.95;;;12.40;76.10;;;;;;5113153;28;20451;-72
2023/01/08 02:40:25;;;;;;;4.82;2.17;;;12.40;76.10;;;;;;5110138;28;20063;-72
2023/01/08 02:43:09;;;;;;;6.65;2.47;;;12.30;76.70;;;;;;5128010;27;20031;-72
2023/01/08 02:45:57;;;;;;;6.55;2.40;;;12.40;76.00;;;;;;5112798;28;20034;-72
2023/01/08 02:48:41;;;;;;;5.78;2.00;;;12.40;76.10;;;;;;5106403;28;20051;-72
2023/01/08 02:51:13;;;;;;;6.65;2.60;;;12.30;76.10;;;;;;5107767;28;20035;-72
2023/01/08 02:53:41;;;;;;;;;;;12.30;76.30;;;;;;5094849;28;20067;-72
2023/01/08 02:56:14;;;;;;;5.57;2.30;;;12.30;76.30;;;;;;5105937;28;19908;-72
2023/01/08 02:58:42;;;;;;;6.68;2.17;;;12.20;76.40;;;;;;5109042;28;20019;-71
2023/01/08 03:01:10;;;;;;;6.03;2.30;;;12.20;76.60;;;;;;5120391;28;20035;-72
2023/01/08 03:03:40;;;;;;;6.10;2.53;;;12.20;76.80;;;;;;5124392;28;20068;-72
2023/01/08 03:06:13;;;;;;;6.75;2.53;;;12.10;76.70;;;;;;5102563;28;20103;-72
2023/01/08 03:08:42;;;;;;;6.03;2.10;;;12.20;76.80;;;;;;5126397;27;20021;-72
2023/01/08 03:11:18;;;;;;;6.10;1.95;;;12.10;76.80;;;;;;5104367;28;20035;-72
2023/01/08 03:13:53;;;;;;;7.13;1.98;;;12.10;76.80;;;;;;5122992;27;20121;-72
2023/01/08 03:16:29;;;;;;;3.95;1.63;;;12.10;76.90;;;;;;5108301;28;20073;-72
2023/01/08 03:19:07;;;;;;;5.70;1.83;;;12.10;76.80;;;;;;5103938;28;20047;-72
2023/01/08 03:21:34;;;;;;;5.00;1.63;;;12.00;76.80;;;;;;5110767;28;20574;-72
2023/01/08 03:24:01;;;;;;;8.05;2.00;;;12.00;76.80;;;;;;5115651;28;20360;-72
2023/01/08 03:26:29;;;;;;;3.88;1.30;;;12.00;76.80;;;;;;5106336;28;20035;-72
2023/01/08 03:28:56;;;;;;;4.15;1.27;;;12.00;76.70;;;;;;5109703;28;20038;-72
2023/01/08 03:31:26;;;;;;;4.53;1.27;;;11.90;76.70;;;;;;5103686;28;20138;-72
2023/01/08 03:33:54;;;;;;;3.53;1.17;;;11.90;76.60;;;;;;5112836;28;20085;-72
2023/01/08 03:36:27;;;;;;;3.83;1.20;;;11.90;76.60;;;;;;5114767;28;20059;-72
2023/01/08 03:38:58;;;;;;;3.63;1.27;;;11.80;76.50;;;;;;5112950;28;20337;-72
2023/01/08 03:41:28;;;;;;;4.88;1.75;;;11.80;76.50;;;;;;5113980;28;20036;-72
2023/01/08 03:43:55;;;;;;;4.18;1.48;;;11.80;76.50;;;;;;5113186;28;20092;-72
2023/01/08 03:46:29;;;;;;;4.80;1.45;;;11.80;76.40;;;;;;5115501;28;20395;-72
2023/01/08 03:48:58;;;;;;;3.65;1.23;;;11.80;76.30;;;;;;5109278;28;20101;-72
2023/01/08 03:51:24;;;;;;;4.63;1.33;;;11.80;76.50;;;;;;5106710;28;20058;-72
2023/01/08 03:53:53;;;;;;;4.07;1.30;;;11.70;76.50;;;;;;5113772;28;20443;-72
2023/01/08 03:56:19;;;;;;;3.00;0.80;;;11.70;76.50;;;;;;5108176;28;20035;-72
2023/01/08 03:58:46;;;;;;;3.28;1.20;;;11.70;76.60;;;;;;5094442;28;20028;-72
2023/01/08 04:01:11;;;;;;;4.22;1.23;;;11.70;76.60;;;;;;5113615;28;20032;-72
2023/01/08 04:03:37;;;;;;;5.43;1.40;;;11.60;76.60;;;;;;5111224;28;20035;-71
2023/01/08 04:06:03;;;;;;;3.90;1.30;;;11.60;76.60;;;;;;5100142;28;20448;-72
2023/01/08 04:08:29;;;;;;;4.47;1.02;;;11.60;76.70;;;;;;5106990;28;20441;-72
2023/01/08 04:10:54;;;;;;;3.95;1.00;;;11.60;76.80;;;;;;5124621;27;20038;-72
2023/01/08 04:13:20;;;;;;;4.78;1.10;;;11.60;76.90;;;;;;5110881;28;20035;-72
2023/01/08 04:15:48;;;;;;;2.88;0.98;;;11.60;76.90;;;;;;5112653;28;20051;-72
2023/01/08 04:18:14;;;;;;;3.88;1.35;;;11.50;76.90;;;;;;5105147;28;20032;-72
2023/01/08 04:20:43;;;;;;;3.55;0.90;;;11.50;77.00;;;;;;5111621;27;20038;-72
2023/01/08 04:23:09;;;;;;;3.35;1.17;;;11.50;77.00;;;;;;5119733;28;20320;-72
2023/01/08 04:25:37;;;;;;;4.97;1.02;;;11.60;77.10;;;;;;5113610;28;20032;-72
2023/01/08 04:28:03;;;;;;;3.85;1.20;;;11.50;77.10;;;;;;5105168;28;20163;-72
2023/01/08 04:30:29;;;;;;;5.25;1.27;;;11.50;77.00;;;;;;5122945;28;20435;-71
2023/01/08 04:32:55;;;;;;;5.00;1.17;;;11.50;77.00;;;;;;5116129;28;20027;-72
2023/01/08 04:35:21;;;;;;;6.25;1.00;;;11.50;77.10;;;;;;5122221;28;20333;-72
2023/01/08 04:37:47;;;;;;;4.40;1.23;;;11.50;77.10;;;;;;5123487;28;20084;-72
2023/01/08 04:40:13;;;;;;;2.08;0.95;;;11.50;77.10;;;;;;5120042;28;20047;-72
2023/01/08 04:42:39;;;;;;;6.85;1.30;;;11.50;77.10;;;;;;5122705;28;20030;-72
2023/01/08 04:45:06;;;;;;;5.93;1.08;;;11.40;77.50;;;;;;5119028;28;20043;-71
2023/01/08 04:47:32;;;;;;;4.53;1.00;;;11.50;77.30;;;;;;5124167;28;20106;-72
2023/01/08 04:49:57;;;;;;;5.18;1.17;;;11.50;77.30;;;;;;5114393;28;20474;-72
2023/01/08 04:52:23;;;;;;;4.10;1.05;;;11.50;77.30;;;;;;5101881;28;20024;-72
2023/01/08 04:54:49;;;;;;;7.28;1.10;;;11.50;77.30;;;;;;5111911;28;20012;-72
2023/01/08 04:57:15;;;;;;;3.35;0.85;;;11.50;77.30;;;;;;5107461;28;20085;-72
2023/01/08 04:59:41;;;;;;;3.70;1.08;;;11.40;77.30;;;;;;5110785;28;20394;-72
2023/01/08 05:02:06;;;;;;;6.30;1.58;;;11.50;77.40;;;;;;5106505;28;20047;-72
2023/01/08 05:04:32;;;;;;;4.82;1.38;;;11.40;77.30;;;;;;5105023;28;20062;-72
2023/01/08 05:06:58;;;;;;;3.35;1.00;;;11.40;77.40;;;;;;5101169;28;20043;-72
2023/01/08 05:09:24;;;;;;;3.15;1.40;;;11.40;77.40;;;;;;5112532;28;20076;-72
2023/01/08 05:11:49;;;;;;;6.55;1.00;;;11.40;77.40;;;;;;5105574;28;20056;-72
2023/01/08 05:14:17;;;;;;;5.70;1.00;;;11.40;77.40;;;;;;5107189;28;20027;-72
2023/01/08 05:16:42;;;;;;;3.92;1.10;;;11.40;77.40;;;;;;5093655;28;20071;-72
2023/01/08 05:19:08;;;;;;;4.80;1.20;;;11.40;77.40;;;;;;5104275;28;20503;-72
2023/01/08 05:21:34;;;;;;;3.13;1.02;;;11.40;77.40;;;;;;5112040;28;20024;-72
2023/01/08 05:24:00;;;;;;;5.28;1.30;;;11.40;77.50;;;;;;5104499;28;20356;-72
2023/01/08 05:26:25;;;;;;;5.50;1.25;;;11.50;77.50;;;;;;5114042;28;20034;-72
2023/01/08 05:28:51;;;;;;;5.80;1.27;;;11.50;77.50;;;;;;5087175;28;20047;-72
2023/01/08 05:31:17;;;;;;;3.75;1.00;;;11.40;77.40;;;;;;5110436;28;20024;-72
2023/01/08 05:33:43;;;;;;;3.72;1.23;;;11.40;77.40;;;;;;5104040;28;20317;-72
2023/01/08 05:36:11;;;;;;;4.05;1.13;;;11.50;77.50;;;;;;5117993;28;20028;-72
2023/01/08 05:38:37;;;;;;;4.63;1.13;;;11.40;77.40;;;;;;5112510;28;20016;-72
2023/01/08 05:41:03;;;;;;;4.18;1.35;;;11.40;77.40;;;;;;5117308;28;20486;-72
2023/01/08 05:43:29;;;;;;;4.45;1.27;;;11.40;77.40;;;;;;5113435;28;20448;-72
2023/01/08 05:45:58;;;;;;;3.63;1.50;;;11.40;77.40;;;;;;5122130;28;20024;-71
2023/01/08 05:48:25;;;;;;;4.90;1.58;;;11.40;77.40;;;;;;5090927;28;20024;-71
2023/01/08 05:50:51;;;;;;;4.63;1.48;;;11.40;77.40;;;;;;5107729;28;20365;-71
2023/01/08 05:53:17;;;;;;;4.50;1.35;;;11.40;77.30;;;;;;5108559;28;20024;-71
2023/01/08 05:55:44;;;;;;;3.40;1.25;;;11.40;77.30;;;;;;5114574;28;20028;-72
2023/01/08 05:58:10;;;;;;;4.20;1.20;;;11.40;77.30;;;;;;5115488;28;20107;-71
2023/01/08 06:00:37;;;;;;;5.10;1.27;;;11.40;77.30;;;;;;5115456;28;20443;-72
2023/01/08 06:03:04;;;;;;;5.18;1.55;;;11.40;77.30;;;;;;5111196;28;20123;-73
2023/01/08 06:05:31;;;;;;;4.63;1.50;;;11.40;77.20;;;;;;5114440;28;20774;-72
2023/01/08 06:07:57;;;;;;;5.90;1.27;;;11.40;77.20;;;;;;5112332;28;20028;-72
2023/01/08 06:10:24;;;;;;;4.72;1.67;;;11.40;77.20;;;;;;5111535;28;20112;-72
2023/01/08 06:12:49;;;;;;;3.03;1.10;;;11.40;77.20;;;;;;5114354;28;20044;-72
2023/01/08 06:15:15;;;;;;;3.97;1.30;;;11.40;77.20;;;;;;5108593;28;20356;-72
2023/01/08 06:17:41;;;;;;;4.20;1.40;;;11.50;77.20;;;;;;5114199;28;20015;-72
2023/01/08 06:20:08;;;;;;;2.33;1.20;;;11.40;77.20;;;;;;5110867;28;20440;-73
2023/01/08 06:22:34;;;;;;;4.60;1.33;;;11.40;77.00;;;;;;5115546;28;20084;-72
2023/01/08 06:25:00;;;;;;;2.70;1.20;;;11.40;77.00;;;;;;5115794;28;20024;-71
2023/01/08 06:27:25;;;;;;;5.93;1.45;;;11.40;77.00;;;;;;5111857;27;20019;-71
2023/01/08 06:29:51;;;;;;;4.32;1.33;;;11.40;76.90;;;;;;5110852;28;20034;-71
2023/01/08 06:32:17;;;;;;;6.40;1.25;;;11.40;76.80;;;;;;5121974;27;20024;-71
2023/01/08 06:34:43;;;;;;;5.03;0.98;;;11.40;76.60;;;;;;5116413;28;20119;-71
2023/01/08 06:37:08;;;;;;;4.20;1.20;;;11.40;76.50;;;;;;5115857;28;20032;-72
2023/01/08 06:39:34;;;;;;;4.05;1.20;;;11.40;76.40;;;;;;5117070;28;20046;-71
2023/01/08 06:42:01;;;;;;;4.68;1.90;;;11.40;76.30;;;;;;5115714;27;20047;-71
2023/01/08 06:44:26;;;;;;;3.50;1.30;;;11.40;76.30;;;;;;5116217;28;20042;-71
2023/01/08 06:46:52;;;;;;;2.72;0.90;;;11.30;76.10;;;;;;5116821;28;20035;-71
2023/01/08 06:49:18;;;;;;;6.82;1.48;;;11.30;76.10;;;;;;5116202;28;20098;-71
2023/01/08 06:51:44;;;;;;;3.60;1.15;;;11.30;76.10;;;;;;5109799;28;20031;-71
2023/01/08 06:54:10;;;;;;;2.70;1.05;;;11.30;76.00;;;;;;5106774;28;20019;-71
2023/01/08 06:56:36;;;;;;;3.20;1.10;;;11.30;76.00;;;;;;5110881;28;20341;-71
2023/01/08 06:59:02;;;;;;;3.83;1.13;;;11.30;75.90;;;;;;5110000;28;20023;-71
2023/01/08 07:01:27;;;;;;;3.28;1.10;;;11.20;75.80;;;;;;5100016;28;20049;-71
2023/01/08 07:03:54;;;;;;;2.85;1.25;;;11.20;75.70;;;;;;5104205;28;20036;-71
2023/01/08 07:06:21;;;;;;;4.05;1.10;;;11.20;75.70;;;;;;5104496;28;20049;-71
2023/01/08 07:08:48;;;;;;;4.45;1.25;;;11.20;75.80;;;;;;5109604;28;20401;-72
2023/01/08 07:11:15;;;;;;;4.35;1.48;;;11.20;75.80;;;;;;5105752;28;20329;-73
2023/01/08 07:13:41;;;;;;;2.88;1.10;;;11.20;75.70;;;;;;5098144;28;20077;-73
2023/01/08 07:16:12;;;;;;;11.88;2.45;;;11.20;75.60;;;;;;5103810;28;20432;-73
2023/01/08 07:18:39;;;;;;;4.63;1.25;;;11.20;75.50;;;;;;5092960;28;20050;-72
2023/01/08 07:21:06;;;;;;;5.60;1.10;;;11.20;75.40;;;;;;5086938;28;20516;-73
2023/01/08 07:23:34;;;;;;;4.85;1.42;;;11.20;75.20;;;;;;5104892;28;20023;-72
2023/01/08 07:26:01;;;;;;;6.30;1.80;;;11.20;75.10;;;;;;5110072;28;20047;-72
2023/01/08 07:28:27;;;;;;;4.38;1.17;;;11.20;75.00;;;;;;5118867;27;20127;-72
2023/01/08 07:30:53;;;;;;;3.10;1.20;;;11.20;74.90;;;;;;5115900;28;20325;-72
2023/01/08 07:33:19;;;;;;;4.85;1.38;;;11.10;74.70;;;;;;5112450;28;20027;-72
2023/01/08 07:35:53;;;;;;;5.20;1.17;;;11.10;74.60;;;;;;5114721;28;20172;-72
2023/01/08 07:38:19;;;;;;;8.00;1.40;;;11.10;74.60;;;;;;5102077;28;20038;-73
2023/01/08 07:40:45;;;;;;;4.05;1.30;;;11.10;74.60;;;;;;5091382;28;20027;-72
2023/01/08 07:43:13;;;;;;;5.35;1.50;;;11.00;74.50;;;;;;5101016;27;20031;-73
2023/01/08 07:45:40;;;;;;;6.10;1.60;;;11.00;74.40;;;;;;5108906;28;20028;-72
2023/01/08 07:48:06;;;;;;;7.80;1.58;;;11.00;74.40;;;;;;5092241;28;20452;-72
2023/01/08 07:50:32;;;;;;;6.07;1.48;;;10.90;74.40;;;;;;5105787;27;20114;-72
2023/01/08 07:52:59;;;;;;;6.80;1.73;;;10.90;74.30;;;;;;5097912;28;20016;-72
2023/01/08 07:55:26;;;;;;;4.22;1.38;;;10.90;74.20;;;;;;5100686;28;20039;-72
2023/01/08 07:57:53;;;;;;;4.38;1.23;;;10.90;74.10;;;;;;5108640;28;20088;-71
2023/01/08 08:00:19;;;;;;;6.95;1.52;;;10.90;74.00;;;;;;5102699;28;20451;-71
2023/01/08 08:02:45;;;;;;;6.45;1.40;;;10.90;73.80;;;;;;5105679;28;20032;-71
2023/01/08 08:05:11;;;;;;;6.30;1.20;;;10.90;73.70;;;;;;5084119;28;20032;-71
2023/01/08 08:07:36;;;;;;;7.18;1.80;;;11.00;73.70;;;;;;5107033;28;20371;-71
2023/01/08 08:10:03;;;;;;;4.40;1.17;;;10.90;73.50;;;;;;5106802;28;20368;-71
2023/01/08 08:12:29;;;;;;;5.78;1.40;;;10.90;73.50;;;;;;5085483;28;20023;-71
2023/01/08 08:14:55;;;;;;;10.23;1.95;;;10.90;73.40;;;;;;5082284;28;20020;-71
2023/01/08 08:17:21;;;;;;;3.30;1.40;;;10.90;73.30;;;;;;5103004;28;20034;-70
2023/01/08 08:19:46;;;;;;;4.97;1.35;;;10.90;73.20;;;;;;5091311;28;20052;-70
2023/01/08 08:22:12;;;;;;;3.88;1.20;;;10.90;73.10;;;;;;5104825;28;20044;-70
2023/01/08 08:24:38;;;;;;;4.85;1.65;;;10.90;73.00;;;;;;5100411;28;20114;-70
2023/01/08 08:27:04;;;;;;;8.35;1.58;;;10.90;72.90;;;;;;5101567;28;20028;-71
2023/01/08 08:29:30;;;;;;;6.38;1.42;;;10.90;72.90;;;;;;5107809;28;20390;-70
2023/01/08 08:31:56;;;;;;;7.00;1.55;;;10.90;72.80;;;;;;5106524;28;20398;-71
2023/01/08 08:34:21;;;;;;;6.18;1.98;;;10.90;72.60;;;;;;5101547;28;21700;-71
2023/01/08 08:36:48;;;;;;;4.63;1.20;;;10.90;72.40;;;;;;5102775;28;20066;-71
2023/01/08 08:39:14;;;;;;;5.72;1.55;;;11.00;72.30;;;;;;5106116;28;20367;-70
2023/01/08 08:41:41;;;;;;;5.82;1.77;;;11.00;72.20;;;;;;5108123;28;20051;-71
2023/01/08 08:44:07;;;;;;;5.47;1.55;;;11.00;72.10;;;;;;5106498;28;20027;-72
2023/01/08 08:46:33;;;;;;;6.95;1.52;;;11.00;72.00;;;;;;5102203;28;20027;-72
2023/01/08 08:49:00;;;;;;;5.40;1.58;;;11.10;71.90;;;;;;5099605;28;20028;-72
2023/01/08 08:51:26;;;;;;;6.07;1.40;;;11.10;71.60;;;;;;5095007;28;20019;-73
2023/01/08 08:53:52;;;;;;;5.80;1.30;;;11.20;71.50;;;;;;5099246;28;20019;-71
2023/01/08 08:56:17;;;;;;;6.25;1.45;;;11.20;71.30;;;;;;5105996;28;20106;-72
2023/01/08 08:58:44;;;;;;;6.07;1.40;;;11.20;71.20;;;;;;5099023;28;20502;-70
2023/01/08 09:01:10;;;;;;;5.72;1.67;;;11.30;71.10;;;;;;5102625;28;20062;-70
2023/01/08 09:03:36;;;;;;;3.40;1.20;;;11.30;71.00;;;;;;5098146;28;20016;-72
2023/01/08 09:06:02;;;;;;;5.97;1.38;;;11.40;70.80;;;;;;5095250;28;20028;-71
2023/01/08 09:08:28;;;;;;;5.53;1.60;;;11.40;70.80;;;;;;5095248;28;20096;-71
2023/01/08 09:10:54;;;;;;;5.85;1.50;;;11.40;70.70;;;;;;5106887;27;20027;-72
2023/01/08 09:13:20;;;;;;;8.13;1.30;;;11.50;70.80;;;;;;5085800;28;20023;-71
2023/01/08 09:15:47;;;;;;;6.40;1.52;;;11.50;70.60;;;;;;5103471;27;20471;-72
2023/01/08 09:18:12;;;;;;;6.65;1.80;;;11.50;70.50;;;;;;5107273;27;20043;-73
2023/01/08 09:20:38;;;;;;;8.45;1.80;;;11.60;70.40;;;;;;5085052;28;20024;-72
2023/01/08 09:23:05;;;;;;;7.45;2.15;;;11.70;70.20;;;;;;5100839;27;20063;-71
2023/01/08 09:25:31;;;;;;;6.55;2.67;;;11.70;70.20;;;;;;5106468;27;20110;-71
2023/01/08 09:28:02;;;;;;;5.82;2.15;;;11.70;70.00;;;;;;5110457;27;20122;-70
2023/01/08 09:30:28;;;;;;;6.43;1.90;;;11.80;70.00;;;;;;5111899;27;20039;-72
2023/01/08 09:32:58;;;;;;;10.45;2.13;;;11.80;70.00;;;;;;5098481;27;20016;-73
2023/01/08 09:35:24;;;;;;;7.68;2.08;;;11.80;69.90;;;;;;5103472;27;20027;-72
2023/01/08 09:37:51;;;;;;;6.82;1.65;;;11.80;69.90;;;;;;5082740;28;20173;-72
2023/01/08 09:40:19;;;;;;;5.75;1.33;;;11.90;69.90;;;;;;5104602;27;20022;-72
2023/01/08 09:42:54;;;;;;;4.28;1.55;;;11.80;69.90;;;;;;5111855;27;20027;-72
2023/01/08 09:45:32;;;;;;;4.32;1.30;;;11.80;69.90;;;;;;5106527;27;20031;-70
2023/01/08 09:48:02;;;;;;;4.35;1.20;;;11.80;70.00;;;;;;5105140;27;20070;-71
2023/01/08 09:50:29;;;;;;;6.03;1.60;;;11.80;70.20;;;;;;5107967;27;20027;-71
2023/01/08 09:52:56;;;;;;;5.65;1.42;;;11.70;70.30;;;;;;5110509;28;20027;-71
2023/01/08 09:55:22;;;;;;;5.57;1.48;;;11.70;70.40;;;;;;5103214;28;20036;-73
2023/01/08 09:57:48;;;;;;;6.97;2.03;;;11.60;70.50;;;;;;5104953;27;20039;-71
2023/01/08 10:00:17;;;;;;;7.22;2.17;;;11.50;70.80;;;;;;5114522;27;20043;-72
2023/01/08 10:02:43;;;;;;;9.88;2.30;;;11.50;71.00;;;;;;5108000;28;20041;-71
2023/01/08 10:05:16;;;;;;;6.20;1.63;;;11.40;71.10;;;;;;5117601;27;20039;-71
2023/01/08 10:07:43;;;;;;;6.70;1.80;;;11.30;71.10;;;;;;5100957;28;20391;-72
2023/01/08 10:10:19;;;;;;;6.57;1.92;;;11.30;71.30;;;;;;5104563;28;20019;-72
2023/01/08 10:12:47;;;;;;;4.38;1.88;;;11.30;71.50;;;;;;5107573;28;20024;-71
2023/01/08 10:15:16;;;;;;;7.50;1.85;;;11.30;71.50;;;;;;5093896;28;20406;-71
2023/01/08 10:17:44;;;;;;;6.13;1.33;;;11.30;71.50;;;;;;5107946;28;20091;-71
2023/01/08 10:20:18;;;;;;;7.45;1.73;;;11.40;71.50;;;;;;5079672;28;20035;-72
2023/01/08 10:22:44;;;;;;;6.20;1.80;;;11.60;71.40;;;;;;5100340;27;20032;-72
2023/01/08 10:25:15;;;;;;;8.77;1.60;;;11.80;70.90;;;;;;5106042;27;20115;-71
2023/01/08 10:27:50;;;;;;;9.55;1.83;;;12.00;70.60;;;;;;5109281;28;20368;-73
2023/01/08 10:30:19;;;;;;;6.53;2.03;;;12.10;70.20;;;;;;5109421;28;20026;-71
2023/01/08 10:32:52;;;;;;;7.50;1.73;;;12.10;70.10;;;;;;5117282;28;20102;-72
2023/01/08 10:35:20;;;;;;;6.65;2.00;;;12.10;70.20;;;;;;5116578;28;20020;-71
2023/01/08 10:37:49;;;;;;;6.20;1.50;;;12.20;70.10;;;;;;5106047;28;20065;-72
2023/01/08 10:40:29;;;;;;;5.60;1.70;;;12.40;69.90;;;;;;5114431;28;20031;-72
2023/01/08 10:43:03;;;;;;;6.35;1.90;;;12.50;69.40;;;;;;5104721;28;20051;-72
2023/01/08 10:45:29;;;;;;;6.72;1.33;;;12.70;69.10;;;;;;5095892;28;20038;-72
2023/01/08 10:47:59;;;;;;;7.05;1.63;;;12.90;68.80;;;;;;5103543;28;20027;-71
2023/01/08 10:50:30;;;;;;;8.10;1.95;;;12.90;68.60;;;;;;5113709;28;20031;-71
2023/01/08 10:53:02;;;;;;;4.43;1.23;;;13.00;68.50;;;;;;5108291;28;20032;-72
2023/01/08 10:55:30;;;;;;;7.10;1.77;;;13.10;68.30;;;;;;5110785;28;20348;-72
2023/01/08 10:58:00;;;;;;;6.70;2.00;;;13.10;68.20;;;;;;5114358;28;20399;-72
2023/01/08 11:00:28;;;;;;;6.43;1.42;;;13.20;68.10;;;;;;5107260;28;20073;-72
2023/01/08 11:02:59;;;;;;;7.80;1.65;;;13.20;68.00;;;;;;5115507;28;20023;-72
2023/01/08 11:05:39;;;;;;;8.57;2.05;;;13.20;68.00;;;;;;5105265;28;20444;-73
2023/01/08 11:08:17;;;;;;;9.43;2.00;;;13.30;67.90;;;;;;5103692;28;20478;-72
2023/01/08 11:10:55;;;;;;;6.55;1.83;;;13.40;67.60;;;;;;5106555;28;20028;-71
2023/01/08 11:13:21;;;;;;;7.82;1.58;;;13.40;67.50;;;;;;5112385;28;20019;-72
2023/01/08 11:16:09;;;;;;;7.28;1.70;;;13.30;67.70;;;;;;5115720;28;20012;-71
2023/01/08 11:18:47;;;;;;;5.03;1.85;;;13.10;68.00;;;;;;5098310;28;20043;-72
2023/01/08 11:21:23;;;;;;;6.22;1.75;;;12.90;68.20;;;;;;5126774;27;20024;-70
2023/01/08 11:24:39;;;;;;;7.78;2.13;;;12.70;68.60;;;;;;5113205;28;20102;-71
2023/01/08 11:27:27;;;;;;;5.97;1.55;;;12.60;68.90;;;;;;5096965;28;20368;-71
2023/01/08 11:29:58;;;;;;;7.72;1.63;;;12.40;69.10;;;;;;5112417;28;20058;-72
2023/01/08 11:32:28;;;;;;;9.30;1.95;;;12.30;69.40;;;;;;5106033;28;20030;-72
2023/01/08 11:35:02;;;;;;;6.32;1.88;;;12.40;69.70;;;;;;5111797;28;20449;-72
2023/01/08 11:37:37;;;;;;;8.38;1.65;;;12.40;69.60;;;;;;5098266;28;20372;-71
2023/01/08 11:40:15;;;;;;;6.10;1.75;;;12.50;69.40;;;;;;5114682;28;20034;-74
2023/01/08 11:43:02;;;;;;;7.93;1.73;;;12.50;69.30;;;;;;5113694;28;20043;-72
2023/01/08 11:46:17;;;;;;;5.43;1.60;;;12.60;69.30;;;;;;5097903;28;20031;-72
2023/01/08 11:49:20;;;;;;;7.32;1.90;;;12.60;69.30;;;;;;5059633;28;20046;-72
2023/01/08 11:51:48;;;;;;;6.97;1.80;;;12.50;69.40;;;;;;5108729;28;20051;-71
2023/01/08 11:54:39;;;;;;;5.10;1.58;;;12.40;69.50;;;;;;5102491;28;20027;-72
2023/01/08 11:57:32;;;;;;;4.80;1.40;;;12.40;69.70;;;;;;5114426;28;20036;-72
2023/01/08 12:00:35;;;;;;;4.32;1.63;;;12.30;69.80;;;;;;5115965;28;20024;-73
2023/01/08 12:03:10;;;;;;;5.43;1.42;;;12.30;69.80;;;;;;5103266;28;20038;-71
2023/01/08 12:05:54;;;;;;;5.28;1.25;;;12.30;69.80;;;;;;5093153;28;20027;-72
2023/01/08 12:08:44;;;;;;;5.90;1.50;;;12.30;69.80;;;;;;5127512;27;20043;-73
2023/01/08 12:11:30;;;;;;;2.70;1.05;;;12.30;69.70;;;;;;5104552;28;20016;-73
2023/01/08 12:14:22;;;;;;;4.15;1.40;;;12.40;69.70;;;;;;5123587;27;20056;-73
2023/01/08 12:17:06;;;;;;;4.22;1.20;;;12.40;69.70;;;;;;5108405;28;20110;-73
2023/01/08 12:20:03;;;;;;;3.70;1.17;;;12.40;69.60;;;;;;5101527;28;20051;-73
2023/01/08 12:22:51;;;;;;;3.60;1.25;;;12.30;69.50;;;;;;5105320;28;20040;-73
2023/01/08 12:25:35;;;;;;;4.32;1.00;;;12.30;70.20;;;;;;5113690;28;20420;-73
2023/01/08 12:28:13;;;;;;;4.57;1.10;;;12.40;69.60;;;;;;5092529;28;20028;-73
2023/01/08 12:30:53;;;;;;;3.05;1.10;;;12.30;69.50;;;;;;5114124;28;20032;-73
2023/01/08 12:33:48;;;;;;;4.53;1.00;;;12.30;69.50;;;;;;5111822;28;20114;-71
2023/01/08 12:36:25;;;;;;;3.60;1.25;;;12.30;69.50;;;;;;5084074;28;20043;-71
2023/01/08 12:38:58;;;;;;;3.53;1.30;;;12.30;69.60;;;;;;5112938;28;20023;-72
2023/01/08 12:41:25;;;;;;;2.72;1.00;;;12.30;69.60;;;;;;5112709;28;20031;-71
2023/01/08 12:44:09;;;;;;;4.28;1.00;;;12.30;69.60;;;;;;5116643;28;20057;-71
2023/01/08 12:46:37;;;;;;;2.92;1.08;;;12.30;69.60;;;;;;5113363;28;20116;-71
2023/01/08 12:49:05;;;;;;;3.05;1.30;;;12.30;69.60;;;;;;5118604;28;20448;-72
2023/01/08 12:51:34;;;;;;;5.93;1.35;;;12.30;69.60;;;;;;5115689;28;20036;-72
2023/01/08 12:54:08;;;;;;;2.65;0.95;;;12.30;69.60;;;;;;5118502;28;20027;-71
2023/01/08 12:56:52;;;;;;;2.35;0.90;;;12.30;69.50;;;;;;5106192;28;20031;-72
2023/01/08 12:59:27;;;;;;;2.88;1.00;;;12.40;69.40;;;;;;5112516;28;20020;-71
2023/01/08 13:02:03;;;;;;;2.70;0.98;;;12.40;69.30;;;;;;5112701;28;20042;-72
2023/01/08 13:04:39;;;;;;;3.08;0.93;;;12.40;69.30;;;;;;5115840;28;20038;-72